Terminal Aerodrome Forecast
Issued by NWS Paducah, KY

Home | Current Version | Previous Version | Graphics & Text | Print | Product List | Glossary On
Versions: 1 2 3 4 5 6 7 8 9 10 11 12 13 14 15 16 17 18 19 20 21 22
000
FTUS43 KPAH 241506 AAB
TAFPAH
TAF AMD
KPAH 241506Z 2415/2512 08007KT 3SM -SHRA BR OVC003
      TEMPO 2415/2418 1SM SHRA BR
     FM241800 20008KT 4SM -SHRA OVC010
      TEMPO 2420/2423 2SM TSRA OVC003CB
     FM242300 19012KT 3SM TSRA BR OVC015CB WS020/20050KT
     FM250300 22020G32KT P6SM +SHRA VCTS OVC015CB
     FM250600 27018G29KT P6SM OVC025
     FM251000 28011KT P6SM SCT150=

USA.gov is the U.S. government's official web portal to all federal, state and local government web resources and services.